N211CX KNZY-KNUC
Flight info
| Callsign | N211CX |
|---|---|
| Flight time | 0h 21m |
| Altitude | 12000 |
| Route | ORDER JUROR |
| Aircraft | B737/M-VGDW/C |
Departure
| Time | 2026-04-20 22:27 |
|---|---|
| Airport | North Island Naval Air Station-Halsey Field (KNZY) |
Arrival
| Time | 2026-04-20 22:48 |
|---|---|
| Airport | San Clemente Island Naval Auxiliary Landing Field (KNUC) |
| Time | Latitude | Longitude | Altitude | Speed | Heading |
|---|---|---|---|---|---|
| 2026-04-20 22:12 | 32.70382 | -117.19695 | 39 ft | 0 kts | 164° |
| 2026-04-20 22:17 | 32.70374 | -117.19692 | 37 ft | 5 kts | 164° |
| 2026-04-20 22:18 | 32.70298 | -117.19714 | 40 ft | 11 kts | 206° |
| 2026-04-20 22:18 | 32.70280 | -117.19726 | 41 ft | 0 kts | 212° |
| 2026-04-20 22:18 | 32.70278 | -117.19727 | 41 ft | 4 kts | 212° |
| 2026-04-20 22:18 | 32.70276 | -117.19817 | 40 ft | 7 kts | 254° |
| 2026-04-20 22:19 | 32.70219 | -117.19859 | 42 ft | 13 kts | 214° |
| 2026-04-20 22:19 | 32.70168 | -117.19972 | 43 ft | 19 kts | 245° |
| 2026-04-20 22:19 | 32.70070 | -117.20040 | 42 ft | 17 kts | 171° |
| 2026-04-20 22:19 | 32.69991 | -117.20122 | 40 ft | 16 kts | 223° |
| 2026-04-20 22:20 | 32.69900 | -117.20187 | 37 ft | 15 kts | 213° |
| 2026-04-20 22:20 | 32.69808 | -117.20248 | 35 ft | 15 kts | 209° |
| 2026-04-20 22:20 | 32.69720 | -117.20307 | 33 ft | 14 kts | 210° |
| 2026-04-20 22:20 | 32.69635 | -117.20366 | 32 ft | 14 kts | 211° |
| 2026-04-20 22:21 | 32.69553 | -117.20414 | 33 ft | 13 kts | 183° |
| 2026-04-20 22:21 | 32.69466 | -117.20386 | 31 ft | 13 kts | 167° |
| 2026-04-20 22:21 | 32.69408 | -117.20311 | 31 ft | 13 kts | 121° |
| 2026-04-20 22:21 | 32.69360 | -117.20226 | 34 ft | 12 kts | 127° |
| 2026-04-20 22:22 | 32.69313 | -117.20142 | 34 ft | 12 kts | 120° |
| 2026-04-20 22:22 | 32.69268 | -117.20069 | 34 ft | 0 kts | 140° |
| 2026-04-20 22:24 | 32.69266 | -117.20067 | 35 ft | 4 kts | 143° |
| 2026-04-20 22:24 | 32.69227 | -117.20050 | 37 ft | 6 kts | 175° |
| 2026-04-20 22:25 | 32.69173 | -117.20120 | 35 ft | 16 kts | 275° |
| 2026-04-20 22:25 | 32.69186 | -117.20155 | 32 ft | 0 kts | 302° |
| 2026-04-20 22:25 | 32.69190 | -117.20161 | 32 ft | 3 kts | 302° |
| 2026-04-20 22:25 | 32.69206 | -117.20191 | 32 ft | 6 kts | 302° |
| 2026-04-20 22:26 | 32.69230 | -117.20237 | 29 ft | 0 kts | 302° |
| 2026-04-20 22:26 | 32.69282 | -117.20335 | 30 ft | 51 kts | 302° |
| 2026-04-20 22:26 | 32.69643 | -117.21012 | 32 ft | 140 kts | 302° |
| 2026-04-20 22:27 | 32.70299 | -117.23703 | 1694 ft | 187 kts | 244° |
| 2026-04-20 22:27 | 32.70056 | -117.25147 | 2510 ft | 182 kts | 289° |
| 2026-04-20 22:27 | 32.69922 | -117.26656 | 2401 ft | 221 kts | 220° |
| 2026-04-20 22:27 | 32.68355 | -117.26993 | 2051 ft | 254 kts | 162° |
| 2026-04-20 22:28 | 32.66837 | -117.25902 | 2201 ft | 261 kts | 144° |
| 2026-04-20 22:28 | 32.65428 | -117.24561 | 2071 ft | 251 kts | 141° |
| 2026-04-20 22:28 | 32.64132 | -117.23285 | 2043 ft | 235 kts | 141° |
| 2026-04-20 22:28 | 32.62738 | -117.22447 | 2043 ft | 223 kts | 175° |
| 2026-04-20 22:29 | 32.61240 | -117.22784 | 2078 ft | 223 kts | 204° |
| 2026-04-20 22:29 | 32.59729 | -117.23282 | 2067 ft | 227 kts | 187° |
| 2026-04-20 22:29 | 32.58182 | -117.23607 | 2071 ft | 226 kts | 209° |
| 2026-04-20 22:29 | 32.57239 | -117.24905 | 2622 ft | 203 kts | 255° |
| 2026-04-20 22:30 | 32.57097 | -117.26494 | 3781 ft | 188 kts | 271° |
| 2026-04-20 22:30 | 32.57344 | -117.28053 | 4915 ft | 198 kts | 287° |
| 2026-04-20 22:30 | 32.57851 | -117.29631 | 5825 ft | 217 kts | 289° |
| 2026-04-20 22:30 | 32.58455 | -117.31363 | 6601 ft | 237 kts | 290° |
| 2026-04-20 22:31 | 32.59116 | -117.33240 | 7366 ft | 257 kts | 290° |
| 2026-04-20 22:31 | 32.59832 | -117.35280 | 8138 ft | 279 kts | 290° |
| 2026-04-20 22:31 | 32.60601 | -117.37483 | 8943 ft | 300 kts | 290° |
| 2026-04-20 22:31 | 32.61423 | -117.39848 | 9739 ft | 320 kts | 290° |
| 2026-04-20 22:32 | 32.62291 | -117.42360 | 10492 ft | 338 kts | 290° |
| 2026-04-20 22:32 | 32.63192 | -117.44976 | 11227 ft | 355 kts | 290° |
| 2026-04-20 22:32 | 32.64151 | -117.47772 | 11762 ft | 379 kts | 290° |
| 2026-04-20 22:32 | 32.65177 | -117.50771 | 11991 ft | 408 kts | 290° |
| 2026-04-20 22:33 | 32.66266 | -117.53954 | 11979 ft | 414 kts | 290° |
| 2026-04-20 22:33 | 32.67330 | -117.57061 | 11978 ft | 400 kts | 290° |
| 2026-04-20 22:33 | 32.68366 | -117.60089 | 11982 ft | 393 kts | 290° |
| 2026-04-20 22:33 | 32.69387 | -117.63084 | 11986 ft | 388 kts | 290° |
| 2026-04-20 22:34 | 32.70382 | -117.66003 | 11974 ft | 372 kts | 290° |
| 2026-04-20 22:34 | 32.71325 | -117.68771 | 11973 ft | 351 kts | 290° |
| 2026-04-20 22:34 | 32.72244 | -117.71375 | 11972 ft | 333 kts | 294° |
| 2026-04-20 22:34 | 32.73393 | -117.73688 | 11986 ft | 317 kts | 301° |
| 2026-04-20 22:35 | 32.74601 | -117.75809 | 11970 ft | 302 kts | 302° |
| 2026-04-20 22:35 | 32.75773 | -117.77835 | 11979 ft | 295 kts | 302° |
| 2026-04-20 22:35 | 32.76913 | -117.79810 | 11990 ft | 295 kts | 302° |
| 2026-04-20 22:35 | 32.78073 | -117.81830 | 12006 ft | 297 kts | 302° |
| 2026-04-20 22:36 | 32.79245 | -117.83881 | 11773 ft | 302 kts | 302° |
| 2026-04-20 22:36 | 32.80427 | -117.85953 | 11509 ft | 304 kts | 302° |
| 2026-04-20 22:36 | 32.81612 | -117.88036 | 11157 ft | 303 kts | 302° |
| 2026-04-20 22:36 | 32.82789 | -117.90109 | 10812 ft | 301 kts | 302° |
| 2026-04-20 22:37 | 32.83959 | -117.92170 | 10454 ft | 300 kts | 302° |
| 2026-04-20 22:37 | 32.85123 | -117.94225 | 10105 ft | 299 kts | 302° |
| 2026-04-20 22:37 | 32.86273 | -117.96254 | 9793 ft | 296 kts | 302° |
| 2026-04-20 22:37 | 32.87420 | -117.98282 | 9424 ft | 294 kts | 302° |
| 2026-04-20 22:38 | 32.88558 | -118.00295 | 9061 ft | 293 kts | 302° |
| 2026-04-20 22:38 | 32.89690 | -118.02299 | 8702 ft | 291 kts | 302° |
| 2026-04-20 22:38 | 32.90803 | -118.04270 | 8351 ft | 290 kts | 302° |
| 2026-04-20 22:38 | 32.91922 | -118.06253 | 8002 ft | 288 kts | 302° |
| 2026-04-20 22:39 | 32.93037 | -118.08230 | 7650 ft | 287 kts | 302° |
| 2026-04-20 22:39 | 32.94145 | -118.10196 | 7304 ft | 286 kts | 302° |
| 2026-04-20 22:39 | 32.95250 | -118.12156 | 6961 ft | 285 kts | 302° |
| 2026-04-20 22:39 | 32.96351 | -118.14112 | 6616 ft | 284 kts | 302° |
| 2026-04-20 22:40 | 32.97452 | -118.16068 | 6251 ft | 284 kts | 302° |
| 2026-04-20 22:40 | 32.98549 | -118.18019 | 5883 ft | 283 kts | 302° |
| 2026-04-20 22:40 | 32.99643 | -118.19964 | 5531 ft | 282 kts | 302° |
| 2026-04-20 22:40 | 33.00733 | -118.21904 | 5189 ft | 281 kts | 302° |
| 2026-04-20 22:41 | 33.01819 | -118.23837 | 4856 ft | 279 kts | 302° |
| 2026-04-20 22:41 | 33.02856 | -118.25682 | 4818 ft | 257 kts | 302° |
| 2026-04-20 22:41 | 33.03813 | -118.27386 | 4673 ft | 237 kts | 302° |
| 2026-04-20 22:41 | 33.04699 | -118.28964 | 4566 ft | 222 kts | 302° |
| 2026-04-20 22:42 | 33.05523 | -118.30434 | 4441 ft | 209 kts | 302° |
| 2026-04-20 22:42 | 33.06310 | -118.31838 | 4281 ft | 200 kts | 302° |
| 2026-04-20 22:42 | 33.07079 | -118.33212 | 3966 ft | 198 kts | 302° |
| 2026-04-20 22:42 | 33.07840 | -118.34573 | 3643 ft | 197 kts | 302° |
| 2026-04-20 22:43 | 33.08597 | -118.35925 | 3334 ft | 195 kts | 302° |
| 2026-04-20 22:43 | 33.09288 | -118.37299 | 3082 ft | 188 kts | 286° |
| 2026-04-20 22:43 | 33.09282 | -118.38804 | 2899 ft | 182 kts | 249° |
| 2026-04-20 22:43 | 33.08818 | -118.40166 | 2770 ft | 175 kts | 246° |
| 2026-04-20 22:44 | 33.08361 | -118.41492 | 2596 ft | 171 kts | 246° |
| 2026-04-20 22:44 | 33.07907 | -118.42802 | 2469 ft | 170 kts | 246° |
| 2026-04-20 22:44 | 33.07451 | -118.44108 | 2317 ft | 171 kts | 246° |
| 2026-04-20 22:44 | 33.06994 | -118.45417 | 2159 ft | 170 kts | 246° |
| 2026-04-20 22:45 | 33.06540 | -118.46711 | 2002 ft | 168 kts | 247° |
| 2026-04-20 22:45 | 33.06098 | -118.47971 | 1856 ft | 166 kts | 247° |
| 2026-04-20 22:45 | 33.05648 | -118.49255 | 1666 ft | 166 kts | 247° |
| 2026-04-20 22:45 | 33.05211 | -118.50500 | 1449 ft | 162 kts | 247° |
| 2026-04-20 22:46 | 33.04781 | -118.51722 | 1230 ft | 158 kts | 247° |
| 2026-04-20 22:46 | 33.04354 | -118.52937 | 1026 ft | 160 kts | 247° |
| 2026-04-20 22:46 | 33.03940 | -118.54114 | 863 ft | 146 kts | 246° |
| 2026-04-20 22:46 | 33.03577 | -118.55145 | 624 ft | 127 kts | 246° |
| 2026-04-20 22:47 | 33.03237 | -118.56120 | 460 ft | 130 kts | 246° |
| 2026-04-20 22:47 | 33.02888 | -118.57121 | 304 ft | 129 kts | 243° |
| 2026-04-20 22:47 | 33.02547 | -118.58072 | 174 ft | 115 kts | 244° |
| 2026-04-20 22:47 | 33.02274 | -118.58842 | 146 ft | 84 kts | 247° |
| 2026-04-20 22:48 | 33.02094 | -118.59357 | 126 ft | 53 kts | 247° |
| 2026-04-20 22:48 | 33.01978 | -118.59615 | 121 ft | 21 kts | 198° |
| 2026-04-20 22:48 | 33.01888 | -118.59532 | 122 ft | 18 kts | 79° |
| 2026-04-20 22:48 | 33.01949 | -118.59357 | 126 ft | 34 kts | 67° |
| 2026-04-20 22:49 | 33.02066 | -118.59027 | 138 ft | 48 kts | 67° |
| 2026-04-20 22:49 | 33.02188 | -118.58675 | 150 ft | 39 kts | 67° |
| 2026-04-20 22:49 | 33.02218 | -118.58513 | 155 ft | 0 kts | 125° |
| 2026-04-20 22:49 | 33.02222 | -118.58520 | 154 ft | 3 kts | 147° |
| 2026-04-20 22:50 | 33.02180 | -118.58504 | 154 ft | 20 kts | 158° |
| 2026-04-20 22:50 | 33.02102 | -118.58571 | 151 ft | 10 kts | 225° |
| 2026-04-20 22:50 | 33.02085 | -118.58548 | 152 ft | 0 kts | 65° |